Time;durP1;ratioP1;P1;durP2;ratioP2;P2;SDS_P1;SDS_P2;PMS_P1;PMS_P2;Temp;Humidity;BMP_temperature;BMP_pressure;BME280_temperature;BME280_humidity;BME280_pressure;Samples;Min_cycle;Max_cycle;Signal;HPM_P1;HPM_P2
2021/11/22 00:01:48;;;;;;;10.20;6.50;;;3.00;99.90;;;;;;4965255;28;20427;-60
2021/11/22 00:04:15;;;;;;;10.80;6.87;;;3.00;99.90;;;;;;4969212;28;20422;-61
2021/11/22 00:06:40;;;;;;;11.30;6.93;;;3.00;99.90;;;;;;4955594;28;20514;-60
2021/11/22 00:09:06;;;;;;;9.67;6.20;;;3.00;99.90;;;;;;4980983;28;20539;-60
2021/11/22 00:11:32;;;;;;;9.93;6.40;;;3.00;99.90;;;;;;4989884;28;20628;-59
2021/11/22 00:13:58;;;;;;;9.27;6.17;;;3.00;99.90;;;;;;4966196;28;20582;-61
2021/11/22 00:16:23;;;;;;;8.93;6.47;;;3.00;99.90;;;;;;4965078;28;20480;-61
2021/11/22 00:18:50;;;;;;;7.27;5.73;;;3.00;99.90;;;;;;4963339;28;20184;-61
2021/11/22 00:21:16;;;;;;;9.33;5.90;;;3.00;99.90;;;;;;4985629;28;20173;-60
2021/11/22 00:23:41;;;;;;;10.70;6.77;;;3.10;99.90;;;;;;4979464;28;20410;-61
2021/11/22 00:26:07;;;;;;;10.17;6.17;;;3.10;99.90;;;;;;4962605;28;20228;-60
2021/11/22 00:28:33;;;;;;;8.77;5.50;;;3.10;99.90;;;;;;4979389;28;20616;-60
2021/11/22 00:30:58;;;;;;;9.30;5.83;;;3.10;99.90;;;;;;4989727;28;20185;-60
2021/11/22 00:33:26;;;;;;;11.00;6.50;;;3.10;99.90;;;;;;4960511;28;20197;-60
2021/11/22 00:35:51;;;;;;;10.17;6.10;;;3.10;99.90;;;;;;4968790;28;20185;-60
2021/11/22 00:38:17;;;;;;;6.90;5.60;;;3.10;99.90;;;;;;4975485;28;20412;-61
2021/11/22 00:40:43;;;;;;;9.17;6.17;;;3.10;99.90;;;;;;4978340;28;20649;-59
2021/11/22 00:43:10;;;;;;;9.73;6.10;;;3.10;99.90;;;;;;4962617;28;20488;-61
2021/11/22 00:45:36;;;;;;;10.33;5.53;;;3.10;99.90;;;;;;4974003;28;20467;-60
2021/11/22 00:48:03;;;;;;;9.20;5.53;;;3.20;99.90;;;;;;4968873;28;20428;-60
2021/11/22 00:50:29;;;;;;;10.53;6.13;;;3.20;99.90;;;;;;4983464;28;20461;-60
2021/11/22 00:52:56;;;;;;;8.80;5.47;;;3.10;99.90;;;;;;4988023;28;20408;-61
2021/11/22 00:55:22;;;;;;;10.17;5.20;;;3.10;99.90;;;;;;4954652;28;20417;-61
2021/11/22 00:57:47;;;;;;;10.83;5.90;;;3.10;99.90;;;;;;4966026;28;20420;-60
2021/11/22 01:00:15;;;;;;;7.33;5.10;;;3.10;99.90;;;;;;4983412;28;20460;-60
2021/11/22 01:02:41;;;;;;;8.33;5.57;;;3.10;99.90;;;;;;4970752;28;20223;-61
2021/11/22 01:05:08;;;;;;;6.60;4.73;;;3.10;99.90;;;;;;4971805;28;20468;-60
2021/11/22 01:07:34;;;;;;;8.93;5.47;;;3.10;99.90;;;;;;4970517;28;20799;-59
2021/11/22 01:10:00;;;;;;;5.60;4.30;;;3.20;99.90;;;;;;4970957;28;20462;-61
2021/11/22 01:12:28;;;;;;;8.60;5.40;;;3.20;99.90;;;;;;4992218;28;20185;-59
2021/11/22 01:14:56;;;;;;;8.67;5.40;;;3.20;99.90;;;;;;4980439;28;20453;-59
2021/11/22 01:17:22;;;;;;;7.33;5.10;;;3.20;99.90;;;;;;4982191;28;21034;-60
2021/11/22 01:19:51;;;;;;;8.03;4.53;;;3.20;99.90;;;;;;4985164;28;20460;-60
2021/11/22 01:22:21;;;;;;;6.87;4.93;;;3.20;99.90;;;;;;4972468;28;20451;-61
2021/11/22 01:24:47;;;;;;;5.97;4.47;;;3.20;99.90;;;;;;4972230;28;20424;-60
2021/11/22 01:27:13;;;;;;;6.30;5.20;;;3.20;99.90;;;;;;4968438;28;20993;-60
2021/11/22 01:29:39;;;;;;;7.03;4.50;;;3.20;99.90;;;;;;4974746;28;20447;-60
2021/11/22 01:32:05;;;;;;;8.47;4.30;;;3.20;99.90;;;;;;4981914;28;20201;-60
2021/11/22 01:34:31;;;;;;;6.77;3.87;;;3.20;99.90;;;;;;4962846;28;20443;-60
2021/11/22 01:36:57;;;;;;;7.17;4.50;;;3.10;99.90;;;;;;4971924;28;20421;-58
2021/11/22 01:39:23;;;;;;;5.67;4.10;;;3.10;99.90;;;;;;4973667;28;20436;-60
2021/11/22 01:41:49;;;;;;;6.03;4.70;;;3.10;99.90;;;;;;4971077;28;20186;-60
2021/11/22 01:44:14;;;;;;;6.73;4.67;;;3.10;99.90;;;;;;4970351;28;20645;-60
2021/11/22 01:46:40;;;;;;;6.63;4.50;;;3.10;99.90;;;;;;4979536;28;20296;-60
2021/11/22 01:49:06;;;;;;;4.57;3.57;;;3.20;99.90;;;;;;4982337;28;20205;-61
2021/11/22 01:51:32;;;;;;;6.17;4.00;;;3.20;99.90;;;;;;4974656;28;20180;-60
2021/11/22 01:53:58;;;;;;;6.67;4.67;;;3.20;99.90;;;;;;4974976;28;20429;-61
2021/11/22 01:56:26;;;;;;;6.73;4.67;;;3.20;99.90;;;;;;4973218;28;20178;-60
2021/11/22 01:58:53;;;;;;;6.00;4.27;;;3.20;99.90;;;;;;4967860;28;20464;-60
2021/11/22 02:01:19;;;;;;;6.53;4.53;;;3.10;99.90;;;;;;4981185;28;20465;-61
2021/11/22 02:03:45;;;;;;;6.70;4.57;;;3.10;99.90;;;;;;4976201;28;20919;-59
2021/11/22 02:06:12;;;;;;;8.90;4.40;;;3.20;99.90;;;;;;4968244;28;21192;-60
2021/11/22 02:08:38;;;;;;;5.43;3.63;;;3.20;99.90;;;;;;4958630;28;20426;-60
2021/11/22 02:11:04;;;;;;;6.40;4.33;;;3.10;99.90;;;;;;4957262;28;20857;-60
2021/11/22 02:13:33;;;;;;;6.33;4.67;;;3.10;99.90;;;;;;4982819;28;20429;-60
2021/11/22 02:15:59;;;;;;;5.57;4.00;;;3.10;99.90;;;;;;4966385;28;20459;-60
2021/11/22 02:18:25;;;;;;;6.23;4.60;;;3.10;99.90;;;;;;4975674;28;20801;-61
2021/11/22 02:20:52;;;;;;;7.03;4.97;;;3.10;99.90;;;;;;4969987;28;20212;-61
2021/11/22 02:23:18;;;;;;;6.37;4.77;;;3.20;99.90;;;;;;4966527;28;20170;-60
2021/11/22 02:25:44;;;;;;;6.97;4.20;;;3.10;99.90;;;;;;4964888;28;20641;-60
2021/11/22 02:28:12;;;;;;;8.50;5.30;;;3.20;99.90;;;;;;4974982;28;20422;-59
2021/11/22 02:30:40;;;;;;;6.00;4.60;;;3.20;99.90;;;;;;4966827;28;20879;-61
2021/11/22 02:33:12;;;;;;;8.43;4.97;;;3.20;99.90;;;;;;4957632;28;20426;-60
2021/11/22 02:35:42;;;;;;;8.80;5.00;;;3.20;99.90;;;;;;4960563;28;20500;-60
2021/11/22 02:38:08;;;;;;;6.73;4.43;;;3.10;99.90;;;;;;4981014;28;20418;-61
2021/11/22 02:40:34;;;;;;;7.23;4.83;;;3.20;99.90;;;;;;4968637;28;20460;-60
2021/11/22 02:43:00;;;;;;;7.83;4.70;;;3.10;99.90;;;;;;4956618;28;20186;-61
2021/11/22 02:45:26;;;;;;;6.73;4.77;;;3.20;99.90;;;;;;4965553;28;20225;-61
2021/11/22 02:47:53;;;;;;;8.43;5.60;;;3.20;99.90;;;;;;4973709;28;20184;-58
2021/11/22 02:50:19;;;;;;;9.00;4.90;;;3.20;99.90;;;;;;4976711;28;20883;-60
2021/11/22 02:52:47;;;;;;;9.30;4.93;;;3.10;99.90;;;;;;4977353;28;20437;-59
2021/11/22 02:55:14;;;;;;;9.63;5.63;;;3.20;99.90;;;;;;4966381;28;20531;-61
2021/11/22 02:57:40;;;;;;;8.37;4.90;;;3.20;99.90;;;;;;4963144;28;20812;-60
2021/11/22 03:00:09;;;;;;;8.73;5.70;;;3.20;99.90;;;;;;4973595;28;20484;-60
2021/11/22 03:02:36;;;;;;;8.73;5.90;;;3.10;99.90;;;;;;4959847;28;20432;-60
2021/11/22 03:05:02;;;;;;;7.47;5.30;;;3.10;99.90;;;;;;4978838;28;20460;-61
2021/11/22 03:07:28;;;;;;;8.60;5.20;;;3.10;99.90;;;;;;4956338;28;20421;-61
2021/11/22 03:09:54;;;;;;;8.60;5.10;;;3.10;99.90;;;;;;4961430;28;20463;-61
2021/11/22 03:12:19;;;;;;;6.57;4.70;;;3.10;99.90;;;;;;4971011;28;20181;-59
2021/11/22 03:14:46;;;;;;;7.97;5.07;;;3.10;99.90;;;;;;4958793;28;20180;-60
2021/11/22 03:17:11;;;;;;;11.17;5.03;;;3.00;99.90;;;;;;4968000;28;20180;-60
2021/11/22 03:19:38;;;;;;;10.50;6.07;;;3.00;99.90;;;;;;4972695;28;20440;-60
2021/11/22 03:22:04;;;;;;;13.20;6.43;;;3.00;99.90;;;;;;4969083;28;20184;-61
2021/11/22 03:24:30;;;;;;;11.60;6.60;;;3.00;99.90;;;;;;4954586;28;20445;-60
2021/11/22 03:26:56;;;;;;;10.13;5.93;;;3.00;99.90;;;;;;4972994;28;20944;-61
2021/11/22 03:29:21;;;;;;;14.87;7.23;;;3.00;99.90;;;;;;4965295;28;20192;-60
2021/11/22 03:31:47;;;;;;;12.03;7.40;;;3.00;99.90;;;;;;4969303;28;20174;-61
2021/11/22 03:34:14;;;;;;;10.67;6.50;;;2.90;99.90;;;;;;4963687;28;20181;-61
2021/11/22 03:36:41;;;;;;;14.60;6.77;;;2.90;99.90;;;;;;4978754;28;20256;-60
2021/11/22 03:39:23;;;;;;;11.70;6.20;;;2.90;99.90;;;;;;4967307;28;20464;-61
2021/11/22 03:41:51;;;;;;;9.60;5.60;;;2.90;99.90;;;;;;4967306;28;20982;-60
2021/11/22 03:44:18;;;;;;;12.33;7.13;;;2.90;99.90;;;;;;4980032;28;20480;-59
2021/11/22 03:46:49;;;;;;;15.50;6.70;;;2.80;99.90;;;;;;4970802;28;20542;-61
2021/11/22 03:49:15;;;;;;;10.13;6.07;;;2.80;99.90;;;;;;4971434;28;20979;-59
2021/11/22 03:51:42;;;;;;;10.20;5.97;;;2.80;99.90;;;;;;4972517;28;20523;-60
2021/11/22 03:54:08;;;;;;;9.60;6.50;;;2.80;99.90;;;;;;4979839;28;20467;-60
2021/11/22 03:56:34;;;;;;;11.10;6.07;;;2.80;99.90;;;;;;4966169;28;20449;-60
2021/11/22 03:59:00;;;;;;;11.17;5.63;;;2.80;99.90;;;;;;4968435;28;20531;-60
2021/11/22 04:01:25;;;;;;;9.33;5.50;;;2.80;99.90;;;;;;4971220;28;20570;-61
2021/11/22 04:03:52;;;;;;;11.20;6.50;;;2.80;99.90;;;;;;4976860;28;20644;-61
2021/11/22 04:06:19;;;;;;;10.87;6.27;;;2.80;99.90;;;;;;4966212;28;20200;-60
2021/11/22 04:08:45;;;;;;;8.20;5.47;;;2.80;99.90;;;;;;4965438;28;20421;-60
2021/11/22 04:11:12;;;;;;;8.50;5.70;;;2.80;99.90;;;;;;4957757;28;20947;-58
2021/11/22 04:13:37;;;;;;;8.53;6.10;;;2.80;99.90;;;;;;4961584;28;20253;-61
2021/11/22 04:16:03;;;;;;;9.70;5.70;;;2.80;99.90;;;;;;4960777;28;20939;-58
2021/11/22 04:18:30;;;;;;;10.63;5.70;;;2.80;99.90;;;;;;4973645;28;20655;-60
2021/11/22 04:20:56;;;;;;;10.07;6.20;;;2.80;99.90;;;;;;4971022;28;20509;-60
2021/11/22 04:23:22;;;;;;;8.37;5.10;;;2.90;99.90;;;;;;4975333;28;20902;-60
2021/11/22 04:25:47;;;;;;;11.17;6.00;;;2.90;99.90;;;;;;4976026;28;20554;-60
2021/11/22 04:28:13;;;;;;;8.57;4.90;;;2.90;99.90;;;;;;4960132;28;20464;-59
2021/11/22 04:30:40;;;;;;;8.87;5.63;;;2.90;99.90;;;;;;4968063;28;20200;-59
2021/11/22 04:33:06;;;;;;;9.60;5.47;;;2.90;99.90;;;;;;4961370;28;20181;-60
2021/11/22 04:35:32;;;;;;;7.83;5.20;;;2.90;99.90;;;;;;4976881;28;20448;-59
2021/11/22 04:37:58;;;;;;;9.80;5.57;;;2.90;99.90;;;;;;4976866;28;20454;-60
2021/11/22 04:40:24;;;;;;;9.40;5.50;;;2.90;99.90;;;;;;4970569;28;20197;-60
2021/11/22 04:42:51;;;;;;;10.10;5.70;;;2.80;99.90;;;;;;4973357;28;20421;-61
2021/11/22 04:45:23;;;;;;;9.17;5.60;;;2.80;99.90;;;;;;4981384;28;20541;-59
2021/11/22 04:47:50;;;;;;;8.67;5.40;;;2.80;99.90;;;;;;4981060;28;20433;-61
2021/11/22 04:50:18;;;;;;;10.33;5.80;;;2.80;99.90;;;;;;4992279;28;20557;-59
2021/11/22 04:52:46;;;;;;;7.63;4.80;;;2.80;99.90;;;;;;4991704;28;21052;-59
2021/11/22 04:55:16;;;;;;;9.83;5.50;;;2.80;99.90;;;;;;4973032;28;20432;-59
2021/11/22 04:57:43;;;;;;;8.93;5.00;;;2.80;99.90;;;;;;4974982;28;20435;-61
2021/11/22 05:00:11;;;;;;;7.07;4.80;;;2.80;99.90;;;;;;4968660;28;20456;-60
2021/11/22 05:02:39;;;;;;;10.27;5.57;;;2.80;99.90;;;;;;4983508;28;20440;-60
2021/11/22 05:05:06;;;;;;;8.37;4.90;;;2.80;99.90;;;;;;4958430;28;20468;-59
2021/11/22 05:07:32;;;;;;;8.30;5.00;;;2.80;99.90;;;;;;4981463;28;20434;-61
2021/11/22 05:09:58;;;;;;;9.77;5.17;;;2.80;99.90;;;;;;4964646;28;20468;-61
2021/11/22 05:12:24;;;;;;;9.47;5.00;;;2.80;99.90;;;;;;4968960;28;20185;-59
2021/11/22 05:14:49;;;;;;;7.73;4.77;;;2.80;99.90;;;;;;4968601;28;20205;-56
2021/11/22 05:17:15;;;;;;;7.73;4.83;;;2.80;99.90;;;;;;4974250;28;20713;-60
2021/11/22 05:19:41;;;;;;;7.13;4.67;;;2.80;99.90;;;;;;4964660;28;20190;-58
2021/11/22 05:22:17;;;;;;;5.43;3.90;;;2.80;99.90;;;;;;4957668;28;20256;-61
2021/11/22 05:24:48;;;;;;;7.33;4.00;;;2.80;99.90;;;;;;4964794;28;20181;-61
2021/11/22 05:27:14;;;;;;;7.23;4.67;;;2.80;99.90;;;;;;4965020;28;20435;-61
2021/11/22 05:29:40;;;;;;;6.53;4.40;;;2.80;99.90;;;;;;4971469;28;20452;-59
2021/11/22 05:32:06;;;;;;;7.33;4.53;;;2.80;99.90;;;;;;4971531;28;20524;-61
2021/11/22 05:34:31;;;;;;;7.50;4.83;;;2.80;99.90;;;;;;4967695;28;20236;-60
2021/11/22 05:36:57;;;;;;;9.00;4.67;;;2.80;99.90;;;;;;4965662;28;20201;-60
2021/11/22 05:39:23;;;;;;;8.27;4.83;;;2.80;99.90;;;;;;4957113;28;20204;-60
2021/11/22 05:41:48;;;;;;;7.10;5.03;;;2.90;99.90;;;;;;4964375;28;20196;-61
2021/11/22 05:44:14;;;;;;;10.10;5.73;;;2.90;99.90;;;;;;4964629;28;20646;-60
2021/11/22 05:46:40;;;;;;;12.50;4.40;;;2.90;99.90;;;;;;4972336;28;20297;-61
2021/11/22 05:49:05;;;;;;;6.73;4.60;;;2.90;99.90;;;;;;4966776;28;20216;-56
2021/11/22 05:51:31;;;;;;;7.27;4.80;;;2.90;99.90;;;;;;4972442;28;20174;-61
2021/11/22 05:53:58;;;;;;;7.53;5.03;;;2.90;99.90;;;;;;4970225;28;20178;-59
2021/11/22 05:56:24;;;;;;;7.23;4.60;;;2.80;99.90;;;;;;4967669;28;20177;-59
2021/11/22 05:58:50;;;;;;;8.87;5.23;;;2.90;99.90;;;;;;4961079;28;20449;-61
2021/11/22 06:01:16;;;;;;;8.00;4.60;;;2.90;99.90;;;;;;4961815;28;20174;-61
2021/11/22 06:03:42;;;;;;;9.77;5.27;;;2.90;99.90;;;;;;4966333;28;20449;-60
2021/11/22 06:06:07;;;;;;;7.97;5.67;;;2.80;99.90;;;;;;4957723;28;20212;-60
2021/11/22 06:08:33;;;;;;;8.80;4.90;;;2.80;99.90;;;;;;4954360;28;20410;-60
2021/11/22 06:10:59;;;;;;;8.30;5.20;;;2.80;99.90;;;;;;4964782;28;21011;-59
2021/11/22 06:13:24;;;;;;;7.60;4.70;;;2.80;99.90;;;;;;4956931;28;20191;-61
2021/11/22 06:15:50;;;;;;;8.30;5.00;;;2.70;99.90;;;;;;4956355;28;20178;-61
2021/11/22 06:18:17;;;;;;;7.87;4.50;;;2.70;99.90;;;;;;4955205;28;20225;-61
2021/11/22 06:20:43;;;;;;;8.13;5.00;;;2.70;99.90;;;;;;4963449;28;20460;-60
2021/11/22 06:23:09;;;;;;;6.33;4.60;;;2.70;99.90;;;;;;4960160;28;20791;-59
2021/11/22 06:25:35;;;;;;;6.80;4.40;;;2.70;99.90;;;;;;4964378;28;20263;-61
2021/11/22 06:28:01;;;;;;;8.30;5.30;;;2.70;99.90;;;;;;4977350;28;20446;-61
2021/11/22 06:30:27;;;;;;;7.23;4.90;;;2.70;99.90;;;;;;4979880;28;20854;-60
2021/11/22 06:32:53;;;;;;;6.90;4.70;;;2.70;99.90;;;;;;4957033;28;20457;-61
2021/11/22 06:35:20;;;;;;;10.33;5.20;;;2.70;99.90;;;;;;4961313;28;20525;-61
2021/11/22 06:37:47;;;;;;;6.50;4.37;;;2.60;99.90;;;;;;4961803;28;20421;-60
2021/11/22 06:40:13;;;;;;;10.23;5.27;;;2.60;99.90;;;;;;4958884;28;20433;-61
2021/11/22 06:42:39;;;;;;;8.70;4.90;;;2.60;99.90;;;;;;4952918;28;20420;-60
2021/11/22 06:45:06;;;;;;;6.93;4.57;;;2.60;99.90;;;;;;4952503;28;20841;-61
2021/11/22 06:47:33;;;;;;;7.30;4.80;;;2.60;99.90;;;;;;4951971;28;20274;-60
2021/11/22 06:49:59;;;;;;;7.57;5.53;;;2.60;99.90;;;;;;4964337;28;20523;-61
2021/11/22 06:52:25;;;;;;;7.27;5.17;;;2.60;99.90;;;;;;4951947;28;20461;-61
2021/11/22 06:54:52;;;;;;;7.00;4.43;;;2.60;99.90;;;;;;4952350;28;20429;-58
2021/11/22 06:57:18;;;;;;;7.80;4.67;;;2.60;99.90;;;;;;4964499;28;20492;-61
2021/11/22 06:59:44;;;;;;;10.57;5.50;;;2.60;99.90;;;;;;4971346;28;20444;-61
2021/11/22 07:02:13;;;;;;;8.67;5.03;;;2.60;99.90;;;;;;4970697;28;20769;-61
2021/11/22 07:04:40;;;;;;;8.57;5.30;;;2.60;99.90;;;;;;4970406;28;20235;-60
2021/11/22 07:07:05;;;;;;;8.40;5.10;;;2.60;99.90;;;;;;4969824;28;20554;-60
2021/11/22 07:09:31;;;;;;;7.40;5.27;;;2.60;99.90;;;;;;4970013;28;20535;-57
2021/11/22 07:11:56;;;;;;;6.17;4.60;;;2.60;99.90;;;;;;4959988;28;20185;-61
2021/11/22 07:14:23;;;;;;;6.47;5.03;;;2.60;99.90;;;;;;4957345;28;20254;-61
2021/11/22 07:16:50;;;;;;;7.73;4.83;;;2.60;99.90;;;;;;4969833;28;20671;-60
2021/11/22 07:19:16;;;;;;;7.43;4.80;;;2.60;99.90;;;;;;4981725;28;20486;-60
2021/11/22 07:21:41;;;;;;;9.50;5.20;;;2.60;99.90;;;;;;4990938;28;20825;-60
2021/11/22 07:24:07;;;;;;;7.97;4.87;;;2.60;99.90;;;;;;4989440;28;20419;-61
2021/11/22 07:26:34;;;;;;;8.10;4.93;;;2.60;99.90;;;;;;4975237;28;20182;-60
2021/11/22 07:29:00;;;;;;;5.93;3.93;;;2.60;99.90;;;;;;4969764;28;20459;-58
2021/11/22 07:31:25;;;;;;;6.10;4.60;;;2.60;99.90;;;;;;4962750;28;20991;-60
2021/11/22 07:33:51;;;;;;;6.97;4.97;;;2.60;99.90;;;;;;4971152;28;20404;-61
2021/11/22 07:36:17;;;;;;;8.80;5.57;;;2.60;99.90;;;;;;4970077;28;20252;-61
2021/11/22 07:38:43;;;;;;;6.90;4.90;;;2.60;99.90;;;;;;4957922;28;20711;-60
2021/11/22 07:41:09;;;;;;;7.30;4.33;;;2.60;99.90;;;;;;4964384;28;20174;-61
2021/11/22 07:43:34;;;;;;;8.23;4.63;;;2.70;99.90;;;;;;4967941;28;20201;-61
2021/11/22 07:46:00;;;;;;;7.37;4.80;;;2.70;99.90;;;;;;4968069;28;20523;-60
2021/11/22 07:48:28;;;;;;;8.30;4.67;;;2.70;99.90;;;;;;4985150;28;20710;-61
2021/11/22 07:50:53;;;;;;;5.63;4.40;;;2.80;99.90;;;;;;4972744;28;20201;-61
2021/11/22 07:53:19;;;;;;;6.60;4.33;;;2.80;99.90;;;;;;4981668;28;20429;-61
2021/11/22 07:55:46;;;;;;;7.07;4.10;;;2.80;99.90;;;;;;4971491;28;20252;-60
2021/11/22 07:58:13;;;;;;;7.77;4.77;;;2.80;99.90;;;;;;4971218;28;20174;-60
2021/11/22 08:00:39;;;;;;;7.30;4.70;;;2.80;99.90;;;;;;4972972;28;20464;-61
2021/11/22 08:03:04;;;;;;;5.57;3.97;;;2.90;99.90;;;;;;4966320;28;20515;-60
2021/11/22 08:05:32;;;;;;;5.93;4.07;;;2.90;99.90;;;;;;4955883;28;20308;-61
2021/11/22 08:07:58;;;;;;;8.40;4.17;;;2.90;99.90;;;;;;4954977;29;20401;-61
2021/11/22 08:10:27;;;;;;;7.47;4.20;;;2.90;99.90;;;;;;4967855;28;20558;-60
2021/11/22 08:12:59;;;;;;;5.60;3.83;;;2.90;99.90;;;;;;4965499;28;20425;-60
2021/11/22 08:15:26;;;;;;;7.10;4.67;;;2.90;99.90;;;;;;4963569;28;20827;-60
2021/11/22 08:17:52;;;;;;;5.33;3.80;;;3.00;99.90;;;;;;4966323;28;20436;-59
2021/11/22 08:20:20;;;;;;;7.80;4.20;;;3.00;99.90;;;;;;4969282;28;20460;-61
2021/11/22 08:22:47;;;;;;;6.30;4.17;;;3.00;99.90;;;;;;4972239;28;21003;-60
2021/11/22 08:25:13;;;;;;;6.20;4.50;;;3.10;99.90;;;;;;4972245;28;20511;-61
2021/11/22 08:27:39;;;;;;;6.77;4.10;;;3.10;99.90;;;;;;4968934;28;20462;-60
2021/11/22 08:30:11;;;;;;;10.63;4.37;;;3.10;99.90;;;;;;4981036;28;20537;-60
2021/11/22 08:32:38;;;;;;;5.23;3.10;;;3.10;99.90;;;;;;4976766;28;20939;-59
2021/11/22 08:35:05;;;;;;;4.90;3.57;;;3.10;99.90;;;;;;4973815;28;20425;-59
2021/11/22 08:37:31;;;;;;;5.50;3.80;;;3.20;99.90;;;;;;4973755;28;20936;-61
2021/11/22 08:39:57;;;;;;;4.57;3.63;;;3.20;99.90;;;;;;4975562;28;20511;-60
2021/11/22 08:42:23;;;;;;;4.73;3.77;;;3.20;99.90;;;;;;4972425;28;20509;-61
2021/11/22 08:44:50;;;;;;;4.50;3.80;;;3.20;99.90;;;;;;4972849;28;20622;-60
2021/11/22 08:47:17;;;;;;;4.50;3.67;;;3.30;99.90;;;;;;4973288;28;21041;-61
2021/11/22 08:49:43;;;;;;;5.53;3.57;;;3.30;99.90;;;;;;4973559;28;20435;-61
2021/11/22 08:52:12;;;;;;;5.93;3.67;;;3.40;99.90;;;;;;4968975;28;20420;-61
2021/11/22 08:54:39;;;;;;;5.20;3.73;;;3.40;99.90;;;;;;4963799;28;20198;-61
2021/11/22 08:57:09;;;;;;;4.60;3.13;;;3.40;99.90;;;;;;4967416;28;20429;-61
2021/11/22 08:59:35;;;;;;;5.57;3.83;;;3.40;99.90;;;;;;4953953;28;20438;-58
2021/11/22 09:02:01;;;;;;;5.40;3.63;;;3.50;99.90;;;;;;4954100;28;20414;-61
2021/11/22 09:04:27;;;;;;;7.60;4.40;;;3.50;99.90;;;;;;4961735;28;20430;-59
2021/11/22 09:06:53;;;;;;;5.70;3.60;;;3.60;99.90;;;;;;4958767;28;20282;-61
2021/11/22 09:09:18;;;;;;;4.27;3.40;;;3.60;99.90;;;;;;4970621;28;20257;-59
2021/11/22 09:11:46;;;;;;;4.07;3.13;;;3.70;99.90;;;;;;4971507;28;20444;-61
2021/11/22 09:14:15;;;;;;;4.63;3.03;;;3.70;99.90;;;;;;4964088;28;20170;-61
2021/11/22 09:16:41;;;;;;;3.80;2.70;;;3.70;99.90;;;;;;4963339;28;20822;-61
2021/11/22 09:19:07;;;;;;;2.83;2.20;;;3.70;99.90;;;;;;4983473;28;20472;-61
2021/11/22 09:21:33;;;;;;;3.20;2.70;;;3.80;99.90;;;;;;4992331;28;20404;-61
2021/11/22 09:24:01;;;;;;;2.80;2.47;;;3.80;99.90;;;;;;4983508;28;20420;-58
2021/11/22 09:26:28;;;;;;;2.77;2.30;;;3.80;99.90;;;;;;4964754;28;20558;-60
2021/11/22 09:28:54;;;;;;;3.80;3.00;;;3.90;99.90;;;;;;4966987;28;20438;-60
2021/11/22 09:31:19;;;;;;;2.60;2.20;;;3.90;99.90;;;;;;4959786;28;20557;-61
2021/11/22 09:33:46;;;;;;;3.10;2.30;;;4.00;99.90;;;;;;4964762;28;20418;-60
2021/11/22 09:36:13;;;;;;;3.20;2.37;;;4.00;99.90;;;;;;4972996;28;20224;-59
2021/11/22 09:38:39;;;;;;;2.57;2.37;;;4.10;99.90;;;;;;4972184;28;20417;-61
2021/11/22 09:41:06;;;;;;;2.40;2.20;;;4.10;99.90;;;;;;4962615;28;20434;-59
2021/11/22 09:43:33;;;;;;;2.20;2.00;;;4.10;99.90;;;;;;4970403;28;20511;-61
2021/11/22 09:45:59;;;;;;;2.20;2.00;;;4.20;99.90;;;;;;4955767;28;20532;-58
2021/11/22 09:48:26;;;;;;;2.23;2.03;;;4.20;99.90;;;;;;4955071;28;20414;-60
2021/11/22 09:50:52;;;;;;;2.60;2.07;;;4.30;99.90;;;;;;4981339;28;20471;-61
2021/11/22 09:53:19;;;;;;;2.23;2.03;;;4.30;99.90;;;;;;4973195;28;20433;-60
2021/11/22 09:55:45;;;;;;;1.70;1.60;;;4.30;99.90;;;;;;4968004;28;20877;-61
2021/11/22 09:58:12;;;;;;;2.00;1.67;;;4.40;99.90;;;;;;4970569;28;20450;-61
2021/11/22 10:00:42;;;;;;;2.40;1.57;;;4.40;99.90;;;;;;4972937;28;20260;-61
2021/11/22 10:03:13;;;;;;;2.00;1.87;;;4.40;99.90;;;;;;4968160;28;20438;-61
2021/11/22 10:05:42;;;;;;;1.63;1.53;;;4.40;99.90;;;;;;4966772;28;20455;-58
2021/11/22 10:08:18;;;;;;;1.50;1.40;;;4.40;99.90;;;;;;4971383;28;20430;-58
2021/11/22 10:10:50;;;;;;;1.77;1.27;;;4.50;99.90;;;;;;4962125;28;20905;-59
2021/11/22 10:13:36;;;;;;;1.67;1.57;;;4.50;99.90;;;;;;4970907;28;20459;-58
2021/11/22 10:16:07;;;;;;;4.77;1.40;;;4.60;99.90;;;;;;4974176;28;20435;-57
2021/11/22 10:18:39;;;;;;;1.40;1.30;;;4.60;99.90;;;;;;4974464;28;20433;-61
2021/11/22 10:21:10;;;;;;;2.00;1.43;;;4.60;99.90;;;;;;4980871;28;20471;-61
2021/11/22 10:23:38;;;;;;;2.03;1.23;;;4.60;99.90;;;;;;4968835;28;20425;-61
2021/11/22 10:26:05;;;;;;;1.20;1.10;;;4.60;99.90;;;;;;4964965;28;20518;-60
2021/11/22 10:28:37;;;;;;;1.30;1.20;;;4.60;99.90;;;;;;4975929;28;20458;-60
2021/11/22 10:31:11;;;;;;;1.43;1.33;;;4.60;99.90;;;;;;4977701;28;20432;-59
2021/11/22 10:33:38;;;;;;;1.40;1.30;;;4.70;99.90;;;;;;4963518;28;20964;-59
2021/11/22 10:36:08;;;;;;;1.20;1.10;;;4.70;99.90;;;;;;4970184;28;20832;-59
2021/11/22 10:38:39;;;;;;;1.80;1.30;;;4.70;99.90;;;;;;4965758;28;20465;-59
2021/11/22 10:41:06;;;;;;;1.30;1.00;;;4.70;99.90;;;;;;4963456;28;20448;-60
2021/11/22 10:43:59;;;;;;;1.80;1.33;;;4.70;99.90;;;;;;4961182;28;20424;-61
2021/11/22 10:46:31;;;;;;;1.40;1.30;;;4.70;99.90;;;;;;4955441;28;20589;-61
2021/11/22 10:49:15;;;;;;;1.23;1.20;;;4.70;99.90;;;;;;4966907;28;21162;-60
2021/11/22 10:51:45;;;;;;;1.57;1.47;;;4.70;99.90;;;;;;4970401;28;20512;-60
2021/11/22 10:54:13;;;;;;;1.40;1.30;;;4.70;99.90;;;;;;5021396;23;20505;-59
2021/11/22 10:56:45;;;;;;;2.10;1.70;;;4.70;99.90;;;;;;5025845;28;20446;-58
2021/11/22 10:59:20;;;;;;;1.60;1.40;;;4.80;99.90;;;;;;5023885;28;20422;-61
2021/11/22 11:01:55;;;;;;;1.67;1.50;;;4.80;99.90;;;;;;5019282;28;20410;-60
2021/11/22 11:04:26;;;;;;;2.10;1.83;;;4.80;99.90;;;;;;5004349;28;20454;-61
2021/11/22 11:07:00;;;;;;;2.63;1.70;;;4.80;99.90;;;;;;5010037;28;20505;-59
2021/11/22 11:09:30;;;;;;;1.90;1.80;;;4.80;99.90;;;;;;5008074;28;20406;-62
2021/11/22 11:12:02;;;;;;;2.30;1.90;;;4.80;99.90;;;;;;4995649;28;20416;-59
2021/11/22 11:14:29;;;;;;;3.33;1.77;;;4.90;99.90;;;;;;5000121;28;20992;-60
2021/11/22 11:17:13;;;;;;;1.37;1.30;;;4.90;99.90;;;;;;5010357;28;20955;-66
2021/11/22 11:19:39;;;;;;;1.73;1.47;;;4.90;99.90;;;;;;5010845;28;20939;-60
2021/11/22 11:22:05;;;;;;;1.60;1.50;;;4.90;99.90;;;;;;5016522;28;20896;-62
2021/11/22 11:24:31;;;;;;;1.40;1.30;;;4.90;99.90;;;;;;5012439;28;20493;-64
2021/11/22 11:26:56;;;;;;;1.53;1.43;;;4.90;99.90;;;;;;5014365;28;20243;-61
2021/11/22 11:29:22;;;;;;;1.50;1.40;;;5.00;99.90;;;;;;5027316;28;20495;-63
2021/11/22 11:31:48;;;;;;;1.93;1.83;;;5.00;99.90;;;;;;5015335;28;20185;-63
2021/11/22 11:34:15;;;;;;;1.53;1.43;;;5.10;99.90;;;;;;4999242;28;20487;-63
2021/11/22 11:37:02;;;;;;;1.33;1.23;;;5.10;99.90;;;;;;4994507;28;20432;-60
2021/11/22 11:39:42;;;;;;;1.63;1.53;;;5.10;99.90;;;;;;5004997;28;20443;-64
2021/11/22 11:42:56;;;;;;;1.90;1.30;;;5.10;99.90;;;;;;5005318;28;20458;-61
2021/11/22 11:45:38;;;;;;;1.50;1.20;;;5.10;99.90;;;;;;4995323;28;20512;-63
2021/11/22 11:48:41;;;;;;;1.60;1.50;;;5.20;99.90;;;;;;5020397;28;20416;-63
2021/11/22 11:51:16;;;;;;;1.30;1.30;;;5.20;99.90;;;;;;5026918;28;20509;-64
2021/11/22 11:54:00;;;;;;;1.77;1.60;;;5.20;99.90;;;;;;5029564;28;20442;-61
2021/11/22 11:56:32;;;;;;;1.50;1.40;;;5.20;99.90;;;;;;5009643;28;20644;-61
2021/11/22 11:59:19;;;;;;;1.60;1.50;;;5.30;99.90;;;;;;5001824;28;20430;-60
2021/11/22 12:02:11;;;;;;;1.73;1.63;;;5.30;99.90;;;;;;5002852;28;20467;-61
2021/11/22 12:04:45;;;;;;;2.93;1.90;;;5.30;99.90;;;;;;4990708;28;20468;-61
2021/11/22 12:07:12;;;;;;;2.10;1.60;;;5.30;99.90;;;;;;4999692;28;20462;-63
2021/11/22 12:09:42;;;;;;;1.60;1.50;;;5.30;99.90;;;;;;5011194;28;20976;-61
2021/11/22 12:12:08;;;;;;;1.67;1.57;;;5.20;99.90;;;;;;5005904;28;21080;-62
2021/11/22 12:15:01;;;;;;;1.87;1.20;;;5.20;99.90;;;;;;5003357;28;20434;-61
2021/11/22 12:17:39;;;;;;;1.80;1.70;;;5.20;99.90;;;;;;5002563;28;20226;-60
2021/11/22 12:20:26;;;;;;;2.00;1.70;;;5.20;99.90;;;;;;5000299;28;20428;-60
2021/11/22 12:22:55;;;;;;;1.50;1.40;;;5.10;99.90;;;;;;5005595;28;20451;-62
2021/11/22 12:25:39;;;;;;;1.77;1.67;;;5.20;99.90;;;;;;5022975;28;20460;-62
2021/11/22 12:28:22;;;;;;;1.87;1.77;;;5.20;99.90;;;;;;5027375;28;20441;-63
2021/11/22 12:30:52;;;;;;;1.70;1.60;;;5.10;99.90;;;;;;5023130;28;20403;-61
2021/11/22 12:33:21;;;;;;;1.80;1.70;;;5.20;99.90;;;;;;5010226;28;20456;-60
2021/11/22 12:36:03;;;;;;;2.33;2.13;;;5.20;99.90;;;;;;5007595;28;20412;-60
2021/11/22 12:38:44;;;;;;;2.00;1.80;;;5.20;99.90;;;;;;5002217;28;20834;-60
2021/11/22 12:41:31;;;;;;;1.87;1.77;;;5.20;99.90;;;;;;5006844;28;20798;-58
2021/11/22 12:44:06;;;;;;;2.30;2.20;;;5.20;99.90;;;;;;5002127;28;20536;-60
2021/11/22 12:46:34;;;;;;;2.23;2.03;;;5.20;99.90;;;;;;4999242;28;20867;-60
2021/11/22 12:49:01;;;;;;;2.23;2.03;;;5.20;99.90;;;;;;5009505;28;20418;-58
2021/11/22 12:51:42;;;;;;;2.77;2.37;;;5.10;99.90;;;;;;5007675;28;20423;-59
2021/11/22 12:54:12;;;;;;;3.20;2.70;;;5.10;99.90;;;;;;5009444;28;20883;-60
2021/11/22 12:56:40;;;;;;;3.07;2.60;;;5.20;99.90;;;;;;5013050;28;20435;-61
2021/11/22 12:59:15;;;;;;;3.23;2.37;;;5.10;99.90;;;;;;4999057;28;20440;-60
2021/11/22 13:01:42;;;;;;;2.83;2.63;;;5.10;99.90;;;;;;4993852;28;20446;-60